createdAt,value
2024-02-19T00:02:22.095Z,23.40
2024-02-19T00:04:51.909Z,23.37
2024-02-19T00:07:22.442Z,23.17
2024-02-19T00:09:53.873Z,22.60
2024-02-19T00:12:23.236Z,22.57
2024-02-19T00:14:53.101Z,22.37
2024-02-19T00:17:22.770Z,23.37
2024-02-19T00:19:53.236Z,22.70
2024-02-19T00:22:23.219Z,23.43
2024-02-19T00:24:54.153Z,22.97
2024-02-19T00:27:23.901Z,23.47
2024-02-19T00:29:53.916Z,24.10
2024-02-19T00:32:23.883Z,24.23
2024-02-19T00:34:53.586Z,23.90
2024-02-19T00:37:25.051Z,24.10
2024-02-19T00:39:56.564Z,24.00
2024-02-19T00:42:27.482Z,23.57
2024-02-19T00:44:57.295Z,23.73
2024-02-19T00:47:27.065Z,23.27
2024-02-19T00:49:57.483Z,22.60
2024-02-19T00:52:27.337Z,23.63
2024-02-19T00:54:59.240Z,23.23
2024-02-19T00:57:28.807Z,21.63
2024-02-19T00:59:58.417Z,20.33
2024-02-19T01:02:28.240Z,20.03
2024-02-19T01:04:58.428Z,19.40
2024-02-19T01:07:28.172Z,18.67
2024-02-19T01:09:59.769Z,18.37
2024-02-19T01:12:30.132Z,18.50
2024-02-19T01:15:00.055Z,17.10
2024-02-19T01:17:30.544Z,16.30
2024-02-19T01:20:00.452Z,17.70
2024-02-19T01:22:30.337Z,17.50
2024-02-19T01:25:02.627Z,16.80
2024-02-19T01:27:32.909Z,17.63
2024-02-19T01:30:03.134Z,16.57
2024-02-19T01:32:32.983Z,15.33
2024-02-19T01:35:03.226Z,15.87
2024-02-19T01:37:32.965Z,16.13
2024-02-19T01:40:08.114Z,15.00
2024-02-19T01:42:38.352Z,18.17
2024-02-19T01:45:24.331Z,18.97
2024-02-19T01:47:54.183Z,16.60
2024-02-19T01:50:24.365Z,14.13
2024-02-19T01:52:56.002Z,14.83
2024-02-19T01:55:28.930Z,14.37
2024-02-19T01:58:00.476Z,15.60
2024-02-19T02:00:32.938Z,14.70
2024-02-19T02:03:04.207Z,14.87
2024-02-19T02:05:34.514Z,14.83
2024-02-19T02:08:06.872Z,13.80
2024-02-19T02:10:38.421Z,12.47
2024-02-19T02:13:08.326Z,14.40
2024-02-19T02:15:38.271Z,15.10
2024-02-19T02:18:08.192Z,13.77
2024-02-19T02:20:37.939Z,12.37
2024-02-19T02:23:07.567Z,11.53
2024-02-19T02:25:38.879Z,12.40
2024-02-19T02:28:10.398Z,13.00
2024-02-19T02:30:39.903Z,13.83
2024-02-19T02:33:09.828Z,16.37
2024-02-19T02:35:39.814Z,13.77
2024-02-19T02:38:10.311Z,15.03
2024-02-19T02:40:40.145Z,14.00
2024-02-19T02:43:11.319Z,15.10
2024-02-19T02:45:41.321Z,15.17
2024-02-19T02:48:11.272Z,16.60
2024-02-19T02:50:41.029Z,16.77
2024-02-19T02:53:10.903Z,17.60
2024-02-19T02:55:40.452Z,17.00
2024-02-19T02:58:11.818Z,18.27
2024-02-19T03:00:41.570Z,18.17
2024-02-19T03:03:11.618Z,20.17
2024-02-19T03:05:41.948Z,21.07
2024-02-19T03:08:11.988Z,19.30
2024-02-19T03:10:41.981Z,20.73
2024-02-19T03:13:14.081Z,21.63
2024-02-19T03:15:44.013Z,21.70
2024-02-19T03:18:13.763Z,23.80
2024-02-19T03:20:43.608Z,24.07
2024-02-19T03:23:13.632Z,25.03
2024-02-19T03:25:43.513Z,26.07
2024-02-19T03:28:14.655Z,26.57
2024-02-19T03:30:44.560Z,26.07
2024-02-19T03:33:14.637Z,27.27
2024-02-19T03:35:44.296Z,27.20
2024-02-19T03:38:14.089Z,28.17
2024-02-19T03:40:43.919Z,27.60
2024-02-19T03:43:15.073Z,28.00
2024-02-19T03:45:44.897Z,27.70
2024-02-19T03:48:14.881Z,26.93
2024-02-19T03:50:44.422Z,26.00
2024-02-19T03:53:13.933Z,25.80
2024-02-19T03:55:44.014Z,26.73
2024-02-19T03:58:15.005Z,24.80
2024-02-19T04:00:45.266Z,26.17
2024-02-19T04:03:15.014Z,27.50
2024-02-19T04:05:44.706Z,26.87
2024-02-19T04:08:14.412Z,27.27
2024-02-19T04:10:44.218Z,28.83
2024-02-19T04:13:15.249Z,28.43
2024-02-19T04:15:45.113Z,27.83
2024-02-19T04:18:15.025Z,28.63
2024-02-19T04:20:44.589Z,29.80
2024-02-19T04:23:14.798Z,28.77
2024-02-19T04:25:44.431Z,29.17
2024-02-19T04:28:15.566Z,29.20
2024-02-19T04:30:45.289Z,27.47
2024-02-19T04:33:15.049Z,27.80
2024-02-19T04:35:44.800Z,28.60
2024-02-19T04:38:14.600Z,27.13
2024-02-19T04:40:44.138Z,25.53
2024-02-19T04:43:15.182Z,26.57
2024-02-19T04:45:45.092Z,25.17
2024-02-19T04:48:15.085Z,25.30
2024-02-19T04:50:45.199Z,24.30
2024-02-19T04:53:19.735Z,24.47
2024-02-19T04:55:49.746Z,24.83
2024-02-19T04:58:21.217Z,24.23
2024-02-19T05:00:51.152Z,25.03
2024-02-19T05:03:20.590Z,23.87
2024-02-19T05:05:50.504Z,24.80
2024-02-19T05:08:20.536Z,25.67
2024-02-19T05:10:51.070Z,26.17
2024-02-19T05:13:21.961Z,27.33
2024-02-19T05:15:51.935Z,29.03
2024-02-19T05:18:22.162Z,27.63
2024-02-19T05:20:52.051Z,27.77
2024-02-19T05:23:22.067Z,27.93
2024-02-19T05:25:51.572Z,27.93
2024-02-19T05:28:22.920Z,28.10
2024-02-19T05:30:52.757Z,26.40
2024-02-19T05:33:23.074Z,25.20
2024-02-19T05:35:52.783Z,25.73
2024-02-19T05:38:22.401Z,26.73
2024-02-19T05:40:52.499Z,27.47
2024-02-19T05:43:23.910Z,25.53
2024-02-19T05:45:54.546Z,23.10
2024-02-19T05:48:24.550Z,20.57
2024-02-19T05:50:54.506Z,18.70
2024-02-19T05:53:24.222Z,19.27
2024-02-19T05:55:54.032Z,19.37
2024-02-19T05:58:25.244Z,19.60
2024-02-19T06:00:55.340Z,19.27
2024-02-19T06:03:25.829Z,18.40
2024-02-19T06:05:55.800Z,19.13
2024-02-19T06:08:25.317Z,19.53
2024-02-19T06:10:56.023Z,19.87
2024-02-19T06:13:27.407Z,20.37
2024-02-19T06:15:57.356Z,20.13
2024-02-19T06:18:27.407Z,19.33
2024-02-19T06:20:57.081Z,20.33
2024-02-19T06:23:26.574Z,18.73
2024-02-19T06:25:56.389Z,19.73
2024-02-19T06:28:27.742Z,21.23
2024-02-19T06:30:57.603Z,20.77
2024-02-19T06:33:27.238Z,20.60
2024-02-19T06:35:57.603Z,20.83
2024-02-19T06:38:27.608Z,19.33
2024-02-19T06:40:58.490Z,19.20
2024-02-19T06:43:29.706Z,19.83
2024-02-19T06:46:01.631Z,19.53
2024-02-19T06:48:59.884Z,19.80
2024-02-19T06:51:29.687Z,19.17
2024-02-19T06:54:00.426Z,20.73
2024-02-19T06:56:29.839Z,20.87
2024-02-19T06:59:01.230Z,20.67
2024-02-19T07:01:38.489Z,20.43
2024-02-19T07:04:09.075Z,21.40
2024-02-19T07:06:38.883Z,23.47
2024-02-19T07:09:10.373Z,28.90
2024-02-19T07:11:40.086Z,26.57
2024-02-19T07:14:11.123Z,25.07
2024-02-19T07:16:41.055Z,23.37
2024-02-19T07:19:12.423Z,23.87
2024-02-19T07:21:42.425Z,26.13
2024-02-19T07:24:12.012Z,25.37
2024-02-19T07:26:41.742Z,24.23
2024-02-19T07:29:13.384Z,24.60
2024-02-19T07:31:43.696Z,23.73
2024-02-19T07:34:13.313Z,23.73
2024-02-19T07:36:43.163Z,23.03
2024-02-19T07:39:13.545Z,21.93
2024-02-19T07:41:43.352Z,24.07
2024-02-19T07:44:14.413Z,24.10
2024-02-19T07:46:44.513Z,22.90
2024-02-19T07:49:14.399Z,27.00
2024-02-19T07:51:43.864Z,26.20
2024-02-19T07:54:13.555Z,25.90
2024-02-19T07:56:43.043Z,24.20
2024-02-19T07:59:14.593Z,25.60
2024-02-19T08:01:44.554Z,25.63
2024-02-19T08:04:14.402Z,28.47
2024-02-19T08:06:44.308Z,29.70
2024-02-19T08:09:14.038Z,28.90
2024-02-19T08:11:44.366Z,29.17
2024-02-19T08:14:15.572Z,29.30
2024-02-19T08:16:46.029Z,28.93
2024-02-19T08:19:15.906Z,28.23
2024-02-19T08:21:46.546Z,27.77
2024-02-19T08:24:17.336Z,28.50
2024-02-19T08:26:48.544Z,31.03
2024-02-19T08:29:20.990Z,31.37
2024-02-19T08:31:51.886Z,30.53
2024-02-19T08:34:21.937Z,29.77
2024-02-19T08:36:51.958Z,30.00
2024-02-19T08:39:21.910Z,29.63
2024-02-19T08:41:50.640Z,29.37
2024-02-19T08:44:21.872Z,29.30
2024-02-19T08:46:51.458Z,29.10
2024-02-19T08:49:21.236Z,28.90
2024-02-19T08:51:50.844Z,28.97
2024-02-19T08:54:20.606Z,30.13
2024-02-19T08:56:50.525Z,30.20
2024-02-19T08:59:21.651Z,29.43
2024-02-19T09:01:51.457Z,28.23
2024-02-19T09:04:21.850Z,28.50
2024-02-19T09:06:51.782Z,29.80
2024-02-19T09:09:21.415Z,28.27
2024-02-19T09:11:51.418Z,28.67
2024-02-19T09:14:22.571Z,27.50
2024-02-19T09:16:52.270Z,26.50
2024-02-19T09:19:22.165Z,25.03
2024-02-19T09:21:51.845Z,24.90
2024-02-19T09:24:21.684Z,25.17
2024-02-19T09:26:51.552Z,25.83
2024-02-19T09:29:22.668Z,26.37
2024-02-19T09:31:53.179Z,25.57
2024-02-19T09:34:23.019Z,26.60
2024-02-19T09:36:53.481Z,23.70
2024-02-19T09:39:23.145Z,21.30
2024-02-19T09:41:52.859Z,21.33
2024-02-19T09:44:24.108Z,18.97
2024-02-19T09:47:00.376Z,18.47
2024-02-19T09:49:32.456Z,19.97
2024-02-19T09:52:04.646Z,21.27
2024-02-19T09:54:34.838Z,21.00
2024-02-19T09:57:04.656Z,17.50
2024-02-19T09:59:36.187Z,18.80
2024-02-19T10:02:06.494Z,18.03
2024-02-19T10:04:36.761Z,13.90
2024-02-19T10:07:06.623Z,13.15
2024-02-19T10:09:37.803Z,13.60
2024-02-19T10:12:07.808Z,13.53
2024-02-19T10:14:39.159Z,16.13
2024-02-19T10:17:08.869Z,14.10
2024-02-19T10:19:39.425Z,15.80
2024-02-19T10:22:10.780Z,15.95
2024-02-19T10:24:40.694Z,15.75
2024-02-19T10:27:13.854Z,13.73
2024-02-19T10:29:45.096Z,13.82
2024-02-19T10:32:15.002Z,12.82
2024-02-19T10:34:44.931Z,13.23
2024-02-19T10:37:14.817Z,12.68
2024-02-19T10:39:44.531Z,12.90
2024-02-19T10:42:16.407Z,11.35
2024-02-19T10:44:48.776Z,12.27
2024-02-19T10:47:19.200Z,12.65
2024-02-19T10:49:53.479Z,12.95
2024-02-19T10:52:25.251Z,11.40
2024-02-19T10:55:06.060Z,11.70
2024-02-19T10:57:54.122Z,12.23
2024-02-19T11:00:28.308Z,12.10
2024-02-19T11:03:06.684Z,15.20
2024-02-19T11:05:41.156Z,13.80
2024-02-19T11:08:22.098Z,13.38
2024-02-19T11:10:53.303Z,13.43
2024-02-19T11:13:27.095Z,11.73
2024-02-19T11:15:58.839Z,13.07
2024-02-19T11:18:31.532Z,14.70
2024-02-19T11:21:08.568Z,15.27
2024-02-19T11:23:38.370Z,14.63
2024-02-19T11:26:09.172Z,15.70
2024-02-19T11:28:40.775Z,15.23
2024-02-19T11:31:17.399Z,14.50
2024-02-19T11:33:51.827Z,16.55
2024-02-19T11:36:21.882Z,16.50
2024-02-19T11:38:51.895Z,16.23
2024-02-19T11:41:24.055Z,15.68
2024-02-19T11:43:56.738Z,16.00
2024-02-19T11:46:28.195Z,17.02
2024-02-19T11:48:59.189Z,17.52
2024-02-19T11:51:41.445Z,18.35
2024-02-19T11:54:13.293Z,17.42
2024-02-19T11:56:46.187Z,17.40
2024-02-19T11:59:17.756Z,17.63
2024-02-19T12:01:54.897Z,17.48
2024-02-19T12:04:24.669Z,17.38
2024-02-19T12:06:54.783Z,18.83
2024-02-19T12:09:24.793Z,18.83
2024-02-19T12:11:54.684Z,18.42
2024-02-19T12:14:24.585Z,17.58
2024-02-19T12:16:57.167Z,18.20
2024-02-19T12:19:27.609Z,17.33
2024-02-19T12:21:57.540Z,18.15
2024-02-19T12:24:28.031Z,17.40
2024-02-19T12:26:58.050Z,18.50
2024-02-19T12:29:27.703Z,17.88
2024-02-19T12:31:58.800Z,17.40
2024-02-19T12:34:28.475Z,18.20
2024-02-19T12:36:58.268Z,18.17
2024-02-19T12:39:28.294Z,16.67
2024-02-19T12:41:58.354Z,17.33
2024-02-19T12:44:28.270Z,16.58
2024-02-19T12:46:59.720Z,16.48
2024-02-19T12:49:30.043Z,17.55
2024-02-19T12:52:00.234Z,17.20
2024-02-19T12:54:29.980Z,17.00
2024-02-19T12:56:59.799Z,16.83
2024-02-19T12:59:30.326Z,16.67
2024-02-19T13:02:01.328Z,17.50
2024-02-19T13:04:31.529Z,16.98
2024-02-19T13:07:02.301Z,16.27
2024-02-19T13:09:32.449Z,17.10
2024-02-19T13:12:04.479Z,17.83
2024-02-19T13:14:35.862Z,17.67
2024-02-19T13:17:13.956Z,16.65
2024-02-19T13:19:47.851Z,16.80
2024-02-19T13:22:18.109Z,17.58
2024-02-19T13:24:48.055Z,18.02
2024-02-19T13:27:17.912Z,17.75
2024-02-19T13:29:47.531Z,17.52
2024-02-19T13:32:18.968Z,17.42
2024-02-19T13:34:49.970Z,17.60
2024-02-19T13:37:20.285Z,18.05
2024-02-19T13:39:50.313Z,17.80
2024-02-19T13:42:20.382Z,17.27
2024-02-19T13:44:50.414Z,17.42
2024-02-19T13:47:22.025Z,18.15
2024-02-19T13:49:51.737Z,17.38
2024-02-19T13:52:21.689Z,18.30
2024-02-19T13:54:51.397Z,19.05
2024-02-19T13:57:20.941Z,19.23
2024-02-19T13:59:52.739Z,20.15
2024-02-19T14:02:25.898Z,19.75
2024-02-19T14:04:55.790Z,19.02
2024-02-19T14:07:26.435Z,18.42
2024-02-19T14:09:58.074Z,18.30
2024-02-19T14:12:27.828Z,19.75
2024-02-19T14:14:57.533Z,18.75
2024-02-19T14:17:28.504Z,18.77
2024-02-19T14:20:00.481Z,17.92
2024-02-19T14:22:30.516Z,17.50
2024-02-19T14:25:00.617Z,17.73
2024-02-19T14:27:30.886Z,16.83
2024-02-19T14:30:00.849Z,16.65
2024-02-19T14:32:33.348Z,17.13
2024-02-19T14:35:03.931Z,16.58
2024-02-19T14:37:36.336Z,16.48
2024-02-19T14:40:10.289Z,16.35
2024-02-19T14:42:40.425Z,16.88
2024-02-19T14:45:12.372Z,16.92
2024-02-19T14:47:47.077Z,16.85
2024-02-19T14:50:17.593Z,16.80
2024-02-19T14:52:47.477Z,17.30
2024-02-19T14:55:17.195Z,16.98
2024-02-19T14:57:48.962Z,16.92
2024-02-19T15:00:23.284Z,17.77
2024-02-19T15:02:56.551Z,17.98
2024-02-19T15:05:26.736Z,17.05
2024-02-19T15:07:57.005Z,17.95
2024-02-19T15:10:29.321Z,18.67
2024-02-19T15:13:00.627Z,17.42
2024-02-19T15:15:30.512Z,17.75
2024-02-19T15:18:03.559Z,18.63
2024-02-19T15:20:33.442Z,18.25
2024-02-19T15:23:05.808Z,17.95
2024-02-19T15:25:37.023Z,17.70
2024-02-19T15:28:07.928Z,18.10
2024-02-19T15:30:40.093Z,17.23
2024-02-19T15:33:12.252Z,18.10
2024-02-19T15:35:45.508Z,17.80
2024-02-19T15:38:15.242Z,17.67
2024-02-19T15:40:45.356Z,17.23
2024-02-19T15:43:15.290Z,17.33
2024-02-19T15:45:45.987Z,17.95
2024-02-19T15:48:17.611Z,17.52
2024-02-19T15:50:47.535Z,18.25
2024-02-19T15:53:24.958Z,17.50
2024-02-19T15:56:00.977Z,18.50
2024-02-19T15:58:30.817Z,17.83
2024-02-19T16:01:00.498Z,19.15
2024-02-19T16:03:34.410Z,19.35
2024-02-19T16:06:04.940Z,18.63
2024-02-19T16:08:41.710Z,19.55
2024-02-19T16:11:12.354Z,21.08
2024-02-19T16:13:43.092Z,20.02
2024-02-19T16:16:13.279Z,20.52
2024-02-19T16:18:45.018Z,21.23
2024-02-19T16:21:15.394Z,21.40
2024-02-19T16:23:45.941Z,19.40
2024-02-19T16:26:16.428Z,20.27
2024-02-19T16:28:47.281Z,20.90
2024-02-19T16:31:19.646Z,20.33
2024-02-19T16:33:51.065Z,20.50
2024-02-19T16:36:25.318Z,19.98
2024-02-19T16:38:55.359Z,22.08
2024-02-19T16:41:25.042Z,21.20
2024-02-19T16:43:55.250Z,21.45
2024-02-19T16:46:26.133Z,21.75
2024-02-19T16:48:57.759Z,21.50
2024-02-19T16:51:28.376Z,20.20
2024-02-19T16:53:58.514Z,21.42
2024-02-19T16:56:28.737Z,25.52
2024-02-19T16:58:58.841Z,24.60
2024-02-19T17:01:30.309Z,23.98
2024-02-19T17:04:02.347Z,22.92
2024-02-19T17:06:32.965Z,24.60
2024-02-19T17:09:06.639Z,25.70
2024-02-19T17:11:37.362Z,24.90
2024-02-19T17:14:06.857Z,24.55
2024-02-19T17:16:36.748Z,25.58
2024-02-19T17:19:08.066Z,25.98
2024-02-19T17:21:41.803Z,26.63
2024-02-19T17:24:12.119Z,26.42
2024-02-19T17:26:41.926Z,29.27
2024-02-19T17:29:13.262Z,28.63
2024-02-19T17:31:44.926Z,28.95
2024-02-19T17:34:19.173Z,29.30
2024-02-19T17:36:49.104Z,31.15
2024-02-19T17:39:19.850Z,43.42
2024-02-19T17:41:49.318Z,41.45
2024-02-19T17:44:22.782Z,39.35
2024-02-19T17:46:53.836Z,38.70
2024-02-19T17:49:25.456Z,37.97
2024-02-19T17:51:56.418Z,37.10
2024-02-19T17:54:28.388Z,37.00
2024-02-19T17:57:00.974Z,35.42
2024-02-19T17:59:34.473Z,35.67
2024-02-19T18:02:05.258Z,34.72
2024-02-19T18:04:41.287Z,43.37
2024-02-19T18:07:11.134Z,38.07
2024-02-19T18:09:40.965Z,38.27
2024-02-19T18:12:11.379Z,36.40
2024-02-19T18:14:41.225Z,34.10
2024-02-19T18:17:11.040Z,38.27
2024-02-19T18:19:43.820Z,52.80
2024-02-19T18:22:13.946Z,47.67
2024-02-19T18:24:46.047Z,55.27
2024-02-19T18:27:16.901Z,49.00
2024-02-19T18:29:46.545Z,49.57
2024-02-19T18:32:18.672Z,48.23
2024-02-19T18:34:50.234Z,58.60
2024-02-19T18:37:20.076Z,59.50
2024-02-19T18:39:51.835Z,65.10
2024-02-19T18:42:23.329Z,105.60
2024-02-19T18:44:53.602Z,88.60
2024-02-19T18:47:23.736Z,61.00
2024-02-19T18:49:55.339Z,56.90
2024-02-19T18:52:25.104Z,51.93
2024-02-19T18:54:55.010Z,56.07
2024-02-19T18:57:24.813Z,55.60
2024-02-19T18:59:54.320Z,55.83
2024-02-19T19:02:24.214Z,63.07
2024-02-19T19:04:55.507Z,65.77
2024-02-19T19:07:25.281Z,75.70
2024-02-19T19:09:59.006Z,85.03
2024-02-19T19:12:29.718Z,87.47
2024-02-19T19:14:59.561Z,73.87
2024-02-19T19:17:29.565Z,65.80
2024-02-19T19:20:00.747Z,70.20
2024-02-19T19:22:31.026Z,68.90
2024-02-19T19:25:01.455Z,60.10
2024-02-19T19:27:31.564Z,56.80
2024-02-19T19:30:01.282Z,54.60
2024-02-19T19:32:31.718Z,48.20
2024-02-19T19:35:03.036Z,47.63
2024-02-19T19:37:32.919Z,46.27
2024-02-19T19:40:07.571Z,48.87
2024-02-19T19:42:37.915Z,47.77
2024-02-19T19:45:08.742Z,51.20
2024-02-19T19:47:38.498Z,50.03
2024-02-19T19:50:11.144Z,51.90
2024-02-19T19:52:41.089Z,53.67
2024-02-19T19:55:11.433Z,53.53
2024-02-19T19:57:42.617Z,53.13
2024-02-19T20:00:13.350Z,51.30
2024-02-19T20:02:45.849Z,52.40
2024-02-19T20:05:17.428Z,52.87
2024-02-19T20:07:47.268Z,46.43
2024-02-19T20:10:17.294Z,46.70
2024-02-19T20:12:47.973Z,49.53
2024-02-19T20:15:17.661Z,52.83
2024-02-19T20:17:47.791Z,52.73
2024-02-19T20:20:19.249Z,51.17
2024-02-19T20:22:48.829Z,52.50
2024-02-19T20:25:21.170Z,51.33
2024-02-19T20:27:51.025Z,50.70
2024-02-19T20:30:21.445Z,49.43
2024-02-19T20:32:52.975Z,49.17
2024-02-19T20:35:27.417Z,50.47
2024-02-19T20:37:57.535Z,51.57
2024-02-19T20:40:27.328Z,49.40
2024-02-19T20:43:00.013Z,50.07
2024-02-19T20:45:30.954Z,49.33
2024-02-19T20:48:00.725Z,49.10
2024-02-19T20:50:32.129Z,49.10
2024-02-19T20:53:02.042Z,48.80
2024-02-19T20:55:31.970Z,49.60
2024-02-19T20:58:03.325Z,53.37
2024-02-19T21:00:33.007Z,54.07
2024-02-19T21:03:02.826Z,60.17
2024-02-19T21:05:34.082Z,62.47
2024-02-19T21:08:06.541Z,53.90
2024-02-19T21:10:37.229Z,51.43
2024-02-19T21:13:07.341Z,52.43
2024-02-19T21:15:37.615Z,51.87
2024-02-19T21:18:10.673Z,51.30
2024-02-19T21:20:41.890Z,49.87
2024-02-19T21:23:11.964Z,54.57
2024-02-19T21:25:41.944Z,50.07
2024-02-19T21:28:11.615Z,50.50
2024-02-19T21:30:41.700Z,56.50
2024-02-19T21:33:11.628Z,57.17
2024-02-19T21:35:44.704Z,59.67
2024-02-19T21:38:14.407Z,63.53
2024-02-19T21:40:44.359Z,63.27
2024-02-19T21:43:14.359Z,60.97
2024-02-19T21:45:45.280Z,58.90
2024-02-19T21:48:15.378Z,59.53
2024-02-19T21:50:46.673Z,59.43
2024-02-19T21:53:16.459Z,56.17
2024-02-19T21:55:46.171Z,59.50
2024-02-19T21:58:15.838Z,58.17
2024-02-19T22:00:45.303Z,58.27
2024-02-19T22:03:15.298Z,56.80
2024-02-19T22:05:46.706Z,56.20
2024-02-19T22:08:16.688Z,56.33
2024-02-19T22:10:47.712Z,56.00
2024-02-19T22:13:17.457Z,56.27
2024-02-19T22:15:52.468Z,56.53
2024-02-19T22:18:22.612Z,56.37
2024-02-19T22:20:53.947Z,55.63
2024-02-19T22:23:23.655Z,55.33
2024-02-19T22:25:54.376Z,56.07
2024-02-19T22:28:24.285Z,56.10
2024-02-19T22:30:54.034Z,57.60
2024-02-19T22:33:23.673Z,51.17
2024-02-19T22:35:54.737Z,51.73
2024-02-19T22:38:24.597Z,51.63
2024-02-19T22:40:54.474Z,47.83
2024-02-19T22:43:24.654Z,49.60
2024-02-19T22:45:54.863Z,53.57
2024-02-19T22:48:24.893Z,52.87
2024-02-19T22:50:55.855Z,49.20
2024-02-19T22:53:26.073Z,49.87
2024-02-19T22:55:55.990Z,45.93
2024-02-19T22:58:31.814Z,50.40
2024-02-19T23:01:05.755Z,48.60
2024-02-19T23:03:35.508Z,56.67
2024-02-19T23:06:07.293Z,57.53
2024-02-19T23:08:36.932Z,52.20
2024-02-19T23:11:07.795Z,52.93
2024-02-19T23:13:37.934Z,52.53
2024-02-19T23:16:08.545Z,51.63
2024-02-19T23:18:38.264Z,47.83
2024-02-19T23:21:09.874Z,52.20
2024-02-19T23:23:39.584Z,49.90
2024-02-19T23:26:09.708Z,48.60
2024-02-19T23:28:39.521Z,49.67
2024-02-19T23:31:09.270Z,47.67
2024-02-19T23:33:39.707Z,48.87
2024-02-19T23:36:11.132Z,49.80
2024-02-19T23:38:41.728Z,49.07
2024-02-19T23:41:12.960Z,49.50
2024-02-19T23:43:44.791Z,48.97
2024-02-19T23:46:16.418Z,46.93
2024-02-19T23:48:46.205Z,47.80
2024-02-19T23:51:17.856Z,47.60
2024-02-19T23:53:47.974Z,49.27
2024-02-19T23:56:17.987Z,50.60
2024-02-19T23:58:47.507Z,49.50
